Time;durP1;ratioP1;P1;durP2;ratioP2;P2;SDS_P1;SDS_P2;PMS_P1;PMS_P2;Temp;Humidity;BMP_temperature;BMP_pressure;BME280_temperature;BME280_humidity;BME280_pressure;Samples;Min_cycle;Max_cycle;Signal;HPM_P1;HPM_P2
2022/08/25 00:01:26;;;;;;;18.80;14.48;;;;;;;20.91;100.00;100406.63;5102906;28;20038;-64
2022/08/25 00:03:51;;;;;;;17.48;14.25;;;;;;;20.89;100.00;100406.81;5102928;28;20092;-64
2022/08/25 00:06:18;;;;;;;16.63;14.20;;;;;;;20.84;100.00;100397.56;5105288;28;20031;-65
2022/08/25 00:08:43;;;;;;;16.85;14.93;;;;;;;20.88;100.00;100398.84;5103938;28;20048;-64
2022/08/25 00:11:13;;;;;;;19.98;13.90;;;;;;;20.87;100.00;100400.75;5104952;28;20207;-64
2022/08/25 00:13:42;;;;;;;18.52;14.38;;;;;;;20.85;100.00;100396.50;5104331;28;20032;-65
2022/08/25 00:16:10;;;;;;;18.95;14.50;;;;;;;20.83;100.00;100402.16;5104581;28;20089;-64
2022/08/25 00:18:36;;;;;;;16.70;13.60;;;;;;;20.81;100.00;100392.50;5103504;27;20032;-65
2022/08/25 00:21:02;;;;;;;20.10;14.63;;;;;;;20.81;100.00;100400.69;5102409;28;20031;-65
2022/08/25 00:23:28;;;;;;;16.27;14.57;;;;;;;20.78;100.00;100387.44;5102866;28;20023;-65
2022/08/25 00:25:54;;;;;;;16.25;13.52;;;;;;;20.77;100.00;100396.66;5102758;28;20386;-65
2022/08/25 00:28:19;;;;;;;17.00;13.93;;;;;;;20.75;100.00;100396.00;5103858;28;20080;-66
2022/08/25 00:30:46;;;;;;;19.52;13.52;;;;;;;20.74;100.00;100389.75;5103775;28;20031;-65
2022/08/25 00:33:12;;;;;;;18.20;14.30;;;;;;;20.71;100.00;100397.47;5103475;28;20030;-65
2022/08/25 00:35:40;;;;;;;22.92;14.20;;;;;;;20.71;100.00;100386.56;5103309;28;20681;-64
2022/08/25 00:38:05;;;;;;;18.48;13.65;;;;;;;20.70;100.00;100390.34;5103839;28;20119;-65
2022/08/25 00:40:32;;;;;;;17.63;14.20;;;;;;;20.65;100.00;100380.03;5103241;28;20114;-64
2022/08/25 00:42:57;;;;;;;18.77;14.68;;;;;;;20.63;100.00;100373.91;5103546;28;20035;-65
2022/08/25 00:45:24;;;;;;;20.00;13.02;;;;;;;20.59;100.00;100374.50;5101715;28;20023;-65
2022/08/25 00:47:49;;;;;;;17.40;13.35;;;;;;;20.62;100.00;100380.41;5104072;28;20035;-64
2022/08/25 00:50:16;;;;;;;20.02;14.13;;;;;;;20.60;100.00;100384.38;5104151;28;20054;-65
2022/08/25 00:52:47;;;;;;;19.52;13.82;;;;;;;20.60;100.00;100378.94;5102022;28;20028;-64
2022/08/25 00:55:29;;;;;;;15.57;12.98;;;;;;;20.57;100.00;100382.06;5103462;28;20055;-64
2022/08/25 00:58:02;;;;;;;17.95;12.75;;;;;;;20.55;100.00;100387.69;5102868;28;20415;-65
2022/08/25 01:00:36;;;;;;;15.75;12.98;;;;;;;20.53;100.00;100391.66;5101279;28;20032;-65
2022/08/25 01:03:02;;;;;;;18.58;13.27;;;;;;;20.45;100.00;100375.44;5102803;28;20020;-65
2022/08/25 01:05:29;;;;;;;18.17;13.10;;;;;;;20.46;100.00;100382.56;5103441;28;20382;-65
2022/08/25 01:07:56;;;;;;;16.70;13.25;;;;;;;20.40;100.00;100372.44;5102720;28;20023;-64
2022/08/25 01:10:23;;;;;;;18.83;13.20;;;;;;;20.45;100.00;100387.19;5102274;28;20411;-64
2022/08/25 01:12:49;;;;;;;20.08;13.13;;;;;;;20.43;100.00;100382.97;5101629;28;20059;-65
2022/08/25 01:15:15;;;;;;;16.83;13.05;;;;;;;20.40;100.00;100378.75;5102952;28;20032;-65
2022/08/25 01:17:45;;;;;;;15.98;13.57;;;;;;;20.41;100.00;100380.44;5101317;28;20039;-64
2022/08/25 01:20:13;;;;;;;15.30;13.65;;;;;;;20.39;100.00;100374.34;5103578;28;20039;-64
2022/08/25 01:22:38;;;;;;;19.15;15.07;;;;;;;20.35;100.00;100374.94;5102737;28;20096;-64
2022/08/25 01:25:13;;;;;;;18.85;14.02;;;;;;;20.37;100.00;100381.03;5103035;28;20027;-65
2022/08/25 01:27:38;;;;;;;22.17;14.55;;;;;;;20.34;100.00;100375.97;5102958;28;20451;-65
2022/08/25 01:30:04;;;;;;;22.58;14.10;;;;;;;20.29;100.00;100373.00;5103336;28;20088;-65
2022/08/25 01:32:33;;;;;;;17.85;14.38;;;;;;;20.28;100.00;100374.84;5103134;28;20387;-65
2022/08/25 01:34:59;;;;;;;19.95;13.32;;;;;;;20.30;100.00;100380.13;5102781;28;20054;-65
2022/08/25 01:37:24;;;;;;;19.17;13.57;;;;;;;20.31;100.00;100379.09;5102829;28;20427;-65
2022/08/25 01:39:50;;;;;;;17.08;14.15;;;;;;;20.25;100.00;100368.97;5103251;28;20761;-65
2022/08/25 01:42:42;;;;;;;20.10;14.40;;;;;;;20.24;100.00;100367.31;5102696;28;20039;-65
2022/08/25 01:45:09;;;;;;;23.52;14.07;;;;;;;20.19;100.00;100357.00;5102533;28;20084;-65
2022/08/25 01:47:36;;;;;;;19.42;14.32;;;;;;;20.23;100.00;100365.59;5105312;28;20027;-65
2022/08/25 01:50:03;;;;;;;21.02;14.38;;;;;;;20.13;100.00;100350.41;5106911;28;20042;-65
2022/08/25 01:52:36;;;;;;;17.35;13.75;;;;;;;20.18;100.00;100356.13;5106031;28;20035;-65
2022/08/25 01:55:01;;;;;;;19.27;14.20;;;;;;;20.16;100.00;100355.47;5105877;28;20028;-65
2022/08/25 01:57:31;;;;;;;18.42;14.60;;;;;;;20.14;100.00;100351.28;5107840;28;20031;-65
2022/08/25 01:59:58;;;;;;;19.13;13.75;;;;;;;20.11;100.00;100357.97;5105992;28;20030;-64
2022/08/25 02:02:23;;;;;;;18.63;14.10;;;;;;;20.14;100.00;100365.75;5107509;28;20087;-65
2022/08/25 02:04:48;;;;;;;17.40;14.10;;;;;;;20.06;100.00;100349.47;5106934;28;20044;-65
2022/08/25 02:07:14;;;;;;;14.77;12.98;;;;;;;20.11;100.00;100357.97;5107409;28;20034;-65
2022/08/25 02:09:40;;;;;;;18.63;13.98;;;;;;;20.10;100.00;100361.69;5106787;28;20051;-65
2022/08/25 02:12:08;;;;;;;16.23;13.70;;;;;;;20.09;100.00;100360.00;5107182;28;20051;-64
2022/08/25 02:14:35;;;;;;;19.17;14.05;;;;;;;20.03;100.00;100338.97;5105999;28;20046;-64
2022/08/25 02:17:02;;;;;;;22.95;14.57;;;;;;;20.08;100.00;100352.00;5106724;28;20098;-65
2022/08/25 02:19:29;;;;;;;21.27;14.35;;;;;;;20.03;100.00;100344.44;5107341;28;20031;-64
2022/08/25 02:21:55;;;;;;;21.73;14.45;;;;;;;20.05;100.00;100349.69;5104920;28;20035;-64
2022/08/25 02:24:21;;;;;;;20.77;14.52;;;;;;;20.02;100.00;100350.91;5106194;28;20040;-65
2022/08/25 02:26:46;;;;;;;17.20;13.82;;;;;;;19.99;100.00;100345.84;5106816;28;20033;-64
2022/08/25 02:29:12;;;;;;;17.90;13.13;;;;;;;19.89;100.00;100329.00;5106851;28;20078;-65
2022/08/25 02:31:38;;;;;;;19.27;14.15;;;;;;;19.91;100.00;100334.25;5106448;28;20027;-65
2022/08/25 02:34:05;;;;;;;16.10;13.73;;;;;;;19.91;100.00;100340.56;5105927;28;20490;-64
2022/08/25 02:36:31;;;;;;;21.33;14.20;;;;;;;19.94;100.00;100350.22;5106394;28;20530;-65
2022/08/25 02:38:57;;;;;;;19.98;14.32;;;;;;;19.92;100.00;100347.66;5105292;28;20079;-65
2022/08/25 02:41:24;;;;;;;26.42;14.88;;;;;;;19.90;100.00;100341.56;5107389;28;20077;-64
2022/08/25 02:43:50;;;;;;;25.65;14.82;;;;;;;19.91;100.00;100337.84;5103655;28;20775;-65
2022/08/25 02:46:18;;;;;;;22.17;14.60;;;;;;;19.90;100.00;100347.00;5106725;28;20109;-65
2022/08/25 02:48:45;;;;;;;24.58;15.38;;;;;;;19.90;100.00;100335.31;5106827;28;20121;-65
2022/08/25 02:51:11;;;;;;;19.65;14.30;;;;;;;19.90;100.00;100338.84;5105320;28;20023;-65
2022/08/25 02:53:41;;;;;;;18.88;14.77;;;;;;;19.89;100.00;100336.31;5106712;28;20067;-64
2022/08/25 02:56:09;;;;;;;19.38;13.88;;;;;;;19.88;100.00;100329.19;5106291;28;20038;-65
2022/08/25 02:58:35;;;;;;;16.38;13.13;;;;;;;19.79;100.00;100317.59;5105140;28;20725;-65
2022/08/25 03:01:01;;;;;;;17.15;14.30;;;;;;;19.80;100.00;100321.16;5103928;28;20061;-64
2022/08/25 03:03:27;;;;;;;19.13;13.70;;;;;;;19.80;100.00;100326.63;5105780;28;20031;-65
2022/08/25 03:05:54;;;;;;;20.42;14.95;;;;;;;19.80;100.00;100335.59;5105491;28;20232;-64
2022/08/25 03:08:20;;;;;;;18.58;13.52;;;;;;;19.78;100.00;100337.69;5105934;28;20028;-65
2022/08/25 03:10:45;;;;;;;23.65;12.90;;;;;;;19.79;100.00;100330.34;5104642;28;20383;-65
2022/08/25 03:13:11;;;;;;;16.15;13.43;;;;;;;19.75;100.00;100324.47;5106304;28;21417;-65
2022/08/25 03:15:37;;;;;;;19.75;13.88;;;;;;;19.75;100.00;100327.19;5105901;28;20030;-64
2022/08/25 03:18:04;;;;;;;17.00;13.38;;;;;;;19.75;100.00;100331.78;5103391;28;20023;-66
2022/08/25 03:20:29;;;;;;;20.05;14.13;;;;;;;19.76;100.00;100328.00;5104184;28;20118;-66
2022/08/25 03:22:55;;;;;;;19.80;13.73;;;;;;;19.78;100.00;100325.94;5105229;28;20115;-66
2022/08/25 03:28:06;;;;;;;19.02;14.15;;;;;;;19.76;100.00;100336.19;5106047;28;20089;-65
2022/08/25 03:30:34;;;;;;;18.02;12.80;;;;;;;19.74;100.00;100339.09;5106009;28;20432;-65
2022/08/25 03:32:59;;;;;;;19.17;13.63;;;;;;;19.69;100.00;100333.41;5105911;28;20449;-66
2022/08/25 03:35:25;;;;;;;17.10;13.93;;;;;;;19.73;100.00;100342.84;5105318;28;20120;-65
2022/08/25 03:37:55;;;;;;;19.35;14.05;;;;;;;19.70;100.00;100328.81;5106145;28;20799;-64
2022/08/25 03:40:22;;;;;;;23.02;13.45;;;;;;;19.71;100.00;100344.94;5106346;27;20114;-64
2022/08/25 03:42:47;;;;;;;23.02;13.65;;;;;;;19.69;100.00;100338.84;5105836;28;20043;-65
2022/08/25 03:45:15;;;;;;;18.92;13.73;;;;;;;19.70;100.00;100339.69;5105839;28;20028;-65
2022/08/25 03:47:44;;;;;;;20.77;14.18;;;;;;;19.55;100.00;100317.13;5106419;28;20414;-65
2022/08/25 03:50:10;;;;;;;23.85;15.48;;;;;;;19.69;100.00;100343.44;5106018;28;20039;-64
2022/08/25 03:52:36;;;;;;;22.40;14.90;;;;;;;19.70;100.00;100339.69;5104737;28;20412;-66
2022/08/25 03:55:06;;;;;;;26.00;14.35;;;;;;;19.69;100.00;100338.00;5104600;28;20027;-66
2022/08/25 03:57:32;;;;;;;21.33;13.63;;;;;;;19.67;100.00;100340.91;5105211;28;20062;-65
2022/08/25 03:59:58;;;;;;;22.25;13.88;;;;;;;19.67;100.00;100349.06;5106187;28;20036;-65
2022/08/25 04:02:23;;;;;;;17.58;14.00;;;;;;;19.64;100.00;100349.44;5104986;28;20043;-65
2022/08/25 04:04:49;;;;;;;21.48;13.90;;;;;;;19.65;100.00;100355.75;5104154;28;20881;-65
2022/08/25 04:07:14;;;;;;;22.85;15.70;;;;;;;19.63;100.00;100349.63;5106167;28;20028;-66
2022/08/25 04:09:40;;;;;;;17.85;13.65;;;;;;;19.63;100.00;100352.38;5105013;28;20038;-65
2022/08/25 04:12:06;;;;;;;19.80;14.38;;;;;;;19.63;100.00;100353.22;5106597;28;20477;-65
2022/08/25 04:14:32;;;;;;;25.65;14.80;;;;;;;19.65;100.00;100355.75;5104482;28;20039;-65
2022/08/25 04:16:58;;;;;;;21.65;14.23;;;;;;;19.64;100.00;100352.16;5105510;28;20024;-65
2022/08/25 04:19:23;;;;;;;25.83;14.68;;;;;;;19.62;100.00;100347.97;5104618;28;20032;-65
2022/08/25 04:21:49;;;;;;;19.60;15.30;;;;;;;19.67;100.00;100357.22;5105277;28;20165;-65
2022/08/25 04:24:15;;;;;;;21.02;13.82;;;;;;;19.64;100.00;100349.44;5105002;28;20039;-65
2022/08/25 04:26:46;;;;;;;21.95;14.73;;;;;;;19.74;100.00;100360.88;5105328;28;20559;-65
2022/08/25 04:29:13;;;;;;;22.55;14.95;;;;;;;19.72;100.00;100352.06;5105078;28;20084;-65
2022/08/25 04:31:41;;;;;;;21.70;14.77;;;;;;;19.76;100.00;100356.09;5103808;28;20023;-65
2022/08/25 04:34:08;;;;;;;23.92;14.43;;;;;;;19.76;100.00;100356.09;5102724;28;20039;-65
2022/08/25 04:36:34;;;;;;;21.05;14.23;;;;;;;19.83;100.00;100361.63;5104950;28;20720;-65
2022/08/25 04:39:00;;;;;;;22.65;13.45;;;;;;;19.85;100.00;100364.97;5104642;28;20058;-65
2022/08/25 04:41:27;;;;;;;21.60;13.98;;;;;;;19.84;100.00;100357.84;5104871;28;20045;-64
2022/08/25 04:43:56;;;;;;;22.27;14.80;;;;;;;19.93;100.00;100364.88;5103938;28;20024;-64
2022/08/25 04:46:24;;;;;;;23.17;14.65;;;;;;;19.99;100.00;100364.06;5101906;28;20073;-64
2022/08/25 04:48:52;;;;;;;29.35;16.30;;;;;;;20.05;100.00;100366.00;5103535;28;20024;-64
2022/08/25 04:51:22;;;;;;;20.13;15.00;;;;;;;20.09;100.00;100365.44;5105330;28;20368;-65
2022/08/25 04:53:48;;;;;;;23.15;15.25;;;;;;;20.14;100.00;100354.84;5105332;28;20027;-65
2022/08/25 04:56:17;;;;;;;22.77;14.75;;;;;;;20.28;100.00;100363.13;5103600;28;20031;-65
2022/08/25 04:58:45;;;;;;;25.17;14.77;;;;;;;20.35;100.00;100364.88;5104911;28;20088;-65
2022/08/25 05:01:21;;;;;;;21.60;15.45;;;;;;;20.45;100.00;100359.09;5105421;27;20019;-65
2022/08/25 05:03:53;;;;;;;23.50;15.48;;;;;;;20.54;100.00;100360.63;5104932;28;20441;-65
2022/08/25 05:06:18;;;;;;;20.05;13.57;;;;;;;20.62;100.00;100360.47;5105426;28;20027;-65
2022/08/25 05:08:44;;;;;;;23.90;15.23;;;;;;;20.70;100.00;100357.63;5104771;28;20077;-65
2022/08/25 05:11:13;;;;;;;18.85;14.00;;;;;;;20.79;100.00;100353.72;5106165;28;20034;-66
2022/08/25 05:13:40;;;;;;;29.67;16.58;;;;;;;20.89;100.00;100351.47;5104998;28;20100;-65
2022/08/25 05:16:06;;;;;;;19.73;13.38;;;;;;;20.98;100.00;100359.31;5105631;28;20417;-65
2022/08/25 05:18:33;;;;;;;20.50;15.05;;;;;;;21.08;100.00;100361.66;5105334;28;20023;-65
2022/08/25 05:21:10;;;;;;;21.33;14.38;;;;;;;21.19;100.00;100353.78;5105358;28;20030;-64
2022/08/25 05:23:36;;;;;;;20.98;15.23;;;;;;;21.30;100.00;100361.38;5109076;28;20438;-64
2022/08/25 05:26:09;;;;;;;18.70;12.77;;;;;;;21.37;100.00;100355.94;5110075;28;20032;-64
2022/08/25 05:28:35;;;;;;;20.02;14.60;;;;;;;21.50;100.00;100359.56;5109294;28;20026;-65
2022/08/25 05:31:03;;;;;;;21.70;14.23;;;;;;;21.66;100.00;100358.34;5109345;28;20023;-64
2022/08/25 05:33:29;;;;;;;19.13;13.10;;;;;;;21.78;100.00;100356.75;5109368;28;20118;-65
2022/08/25 05:35:54;;;;;;;23.70;13.02;;;;;;;21.91;100.00;100359.53;5109167;28;20130;-65
2022/08/25 05:38:20;;;;;;;24.02;13.35;;;;;;;21.99;100.00;100351.16;5109584;28;20027;-64
2022/08/25 05:40:46;;;;;;;20.00;13.68;;;;;;;22.18;100.00;100358.50;5107858;28;20166;-65
2022/08/25 05:43:13;;;;;;;16.67;13.07;;;;;;;22.32;100.00;100357.50;5108507;28;20467;-65
2022/08/25 05:45:39;;;;;;;21.75;13.40;;;;;;;22.39;100.00;100350.13;5106762;28;20043;-65
2022/08/25 05:48:05;;;;;;;23.60;13.23;;;;;;;22.52;100.00;100341.97;5106104;28;20491;-65
2022/08/25 05:50:30;;;;;;;17.98;12.30;;;;;;;22.69;100.00;100348.69;5108073;28;20115;-65
2022/08/25 05:52:56;;;;;;;26.77;12.85;;;;;;;22.86;100.00;100355.38;5107839;28;20396;-64
2022/08/25 05:55:21;;;;;;;22.27;12.05;;;;;;;23.06;100.00;100353.47;5107103;28;20039;-65
2022/08/25 05:57:47;;;;;;;19.92;11.88;;;;;;;23.21;100.00;100356.78;5107516;28;20098;-65
2022/08/25 06:00:13;;;;;;;16.45;11.23;;;;;;;23.37;100.00;100355.50;5108771;28;20027;-65
2022/08/25 06:02:45;;;;;;;16.02;11.20;;;;;;;23.51;100.00;100346.19;5108973;28;20028;-65
2022/08/25 06:05:20;;;;;;;19.77;11.43;;;;;;;23.68;100.00;100353.69;5109304;28;20037;-65
2022/08/25 06:07:48;;;;;;;20.85;10.77;;;;;;;23.84;100.00;100349.59;5108704;28;20124;-65
2022/08/25 06:10:14;;;;;;;16.00;9.65;;;;;;;24.00;100.00;100344.47;5109190;28;20471;-65
2022/08/25 06:12:45;;;;;;;17.20;9.52;;;;;;;24.18;100.00;100343.69;5108520;28;20027;-65
2022/08/25 06:15:15;;;;;;;13.05;9.73;;;;;;;24.35;100.00;100342.94;5109029;28;20390;-64
2022/08/25 06:17:41;;;;;;;17.80;10.10;;;;;;;24.52;98.92;100335.00;5108435;28;20483;-65
2022/08/25 06:20:14;;;;;;;16.10;9.77;;;;;;;24.69;97.80;100335.31;5109006;28;20542;-65
2022/08/25 06:22:40;;;;;;;19.55;9.68;;;;;;;24.92;96.92;100349.22;5108442;28;20406;-64
2022/08/25 06:25:08;;;;;;;16.52;9.55;;;;;;;25.07;95.25;100345.03;5108684;28;20024;-65
2022/08/25 06:27:34;;;;;;;17.83;8.90;;;;;;;25.25;93.99;100345.06;5107121;28;20126;-64
2022/08/25 06:30:03;;;;;;;20.27;9.48;;;;;;;25.38;92.47;100333.09;5108740;28;20425;-65
2022/08/25 06:32:32;;;;;;;17.55;8.40;;;;;;;25.59;91.31;100346.34;5108550;28;20015;-65
2022/08/25 06:34:58;;;;;;;17.52;8.10;;;;;;;25.74;90.03;100353.13;5107139;28;20035;-66
2022/08/25 06:37:24;;;;;;;17.70;8.77;;;;;;;25.89;89.12;100349.97;5107577;28;20041;-65
2022/08/25 06:39:50;;;;;;;20.23;8.65;;;;;;;25.96;87.68;100337.78;5106131;28;20479;-65
2022/08/25 06:42:16;;;;;;;16.77;7.35;;;;;;;26.15;86.69;100346.88;5107722;28;20047;-65
2022/08/25 06:44:41;;;;;;;28.55;9.32;;;;;;;26.26;85.52;100346.06;5107293;28;20031;-65
2022/08/25 06:47:07;;;;;;;20.10;8.93;;;;;;;26.39;84.99;100332.09;5107835;28;20080;-65
2022/08/25 06:49:32;;;;;;;22.58;8.90;;;;;;;26.51;83.42;100335.69;5107965;28;20114;-66
2022/08/25 06:51:58;;;;;;;20.40;8.70;;;;;;;26.69;83.19;100341.13;5107475;27;20024;-66
2022/08/25 06:54:24;;;;;;;21.75;8.18;;;;;;;26.85;82.35;100348.66;5107526;28;20027;-66
2022/08/25 06:56:50;;;;;;;20.13;8.73;;;;;;;26.91;81.02;100333.94;5106651;28;20027;-66
2022/08/25 06:59:16;;;;;;;17.35;8.43;;;;;;;27.10;79.72;100345.66;5107532;28;20775;-66
2022/08/25 07:01:42;;;;;;;21.75;8.23;;;;;;;27.22;79.10;100340.97;5106727;28;20024;-65
2022/08/25 07:04:08;;;;;;;22.90;7.95;;;;;;;27.35;77.82;100340.75;5106704;28;20016;-65
2022/08/25 07:06:34;;;;;;;22.33;8.07;;;;;;;27.41;76.54;100345.28;5106108;28;20104;-65
2022/08/25 07:09:02;;;;;;;18.55;7.50;;;;;;;27.44;76.50;100339.28;5108062;28;20375;-65
2022/08/25 07:11:32;;;;;;;20.17;7.82;;;;;;;27.56;76.39;100346.44;5106889;28;20061;-65
2022/08/25 07:14:02;;;;;;;22.13;7.93;;;;;;;27.67;75.67;100351.09;5104331;28;20042;-65
2022/08/25 07:16:28;;;;;;;22.08;7.45;;;;;;;27.75;74.93;100361.72;5107891;28;20035;-64
2022/08/25 07:18:55;;;;;;;19.48;8.00;;;;;;;27.84;74.14;100357.50;5107227;28;20028;-65
2022/08/25 07:21:24;;;;;;;16.30;7.22;;;;;;;27.96;73.88;100363.81;5105923;28;20118;-65
2022/08/25 07:23:50;;;;;;;16.38;7.28;;;;;;;28.10;73.08;100365.19;5106955;28;20063;-66
2022/08/25 07:26:22;;;;;;;16.45;6.78;;;;;;;28.23;71.82;100370.41;5107855;28;20047;-66
2022/08/25 07:28:48;;;;;;;21.20;8.57;;;;;;;28.34;70.12;100366.75;5107136;28;20027;-66
2022/08/25 07:31:14;;;;;;;26.65;8.38;;;;;;;28.48;69.33;100368.16;5105983;28;20479;-66
2022/08/25 07:35:14;;;;;;;18.98;7.25;;;;;;;28.60;69.17;100364.47;5106990;28;20031;-65
2022/08/25 07:36:30;;;;;;;15.60;7.43;;;;;;;28.72;68.45;100363.28;5106258;28;20454;-66
2022/08/25 07:38:56;;;;;;;17.67;7.20;;;;;;;28.84;67.51;100374.22;5106692;28;20043;-65
2022/08/25 07:41:22;;;;;;;19.20;7.15;;;;;;;28.85;67.26;100360.16;5107498;28;20039;-66
2022/08/25 07:43:47;;;;;;;27.55;7.45;;;;;;;28.96;66.45;100363.94;5106243;28;20085;-66
2022/08/25 07:46:13;;;;;;;15.15;7.10;;;;;;;29.02;65.34;100355.50;5106414;28;20035;-66
2022/08/25 07:48:39;;;;;;;14.95;6.70;;;;;;;29.11;65.31;100356.72;5106956;28;20440;-66
2022/08/25 07:51:11;;;;;;;14.48;6.72;;;;;;;29.17;65.26;100354.91;5107025;28;20015;-66
2022/08/25 07:53:36;;;;;;;14.82;6.47;;;;;;;29.15;65.31;100349.63;5105503;28;20031;-66
2022/08/25 07:56:08;;;;;;;15.43;6.63;;;;;;;29.21;64.63;100345.00;5106957;28;20050;-66
2022/08/25 07:58:33;;;;;;;24.08;6.93;;;;;;;29.31;64.31;100357.00;5105380;28;20577;-66
2022/08/25 08:00:59;;;;;;;15.23;6.18;;;;;;;29.38;63.38;100354.06;5106928;28;20062;-66
2022/08/25 08:03:24;;;;;;;9.82;5.70;;;;;;;29.42;63.33;100341.41;5106874;28;20023;-66
2022/08/25 08:05:50;;;;;;;16.67;6.43;;;;;;;29.41;62.60;100343.34;5106314;28;20085;-66
2022/08/25 08:08:15;;;;;;;17.25;6.43;;;;;;;29.43;62.01;100334.81;5107040;28;20182;-66
2022/08/25 08:10:41;;;;;;;13.13;5.65;;;;;;;29.48;61.76;100337.63;5105607;28;20027;-66
2022/08/25 08:13:08;;;;;;;12.57;6.00;;;;;;;29.48;60.78;100332.09;5107076;28;20114;-66
2022/08/25 08:15:35;;;;;;;14.30;6.22;;;;;;;29.44;60.77;100325.41;5105377;28;20031;-66
2022/08/25 08:18:01;;;;;;;17.65;6.38;;;;;;;29.47;61.38;100334.00;5106644;28;20291;-66
2022/08/25 08:20:27;;;;;;;16.55;6.03;;;;;;;29.49;61.36;100336.53;5106653;28;20031;-66
2022/08/25 08:22:53;;;;;;;13.70;5.40;;;;;;;29.45;60.89;100318.78;5106031;28;20066;-65
2022/08/25 08:25:19;;;;;;;14.88;5.38;;;;;;;29.49;60.35;100326.31;5106386;28;20038;-66
2022/08/25 08:27:45;;;;;;;15.00;5.60;;;;;;;29.49;59.92;100331.00;5103850;28;20487;-66
2022/08/25 08:30:11;;;;;;;10.27;4.50;;;;;;;29.49;59.14;100319.94;5106012;28;20034;-66
2022/08/25 08:32:36;;;;;;;13.93;5.38;;;;;;;29.56;59.77;100326.13;5106256;28;20383;-66
2022/08/25 08:35:04;;;;;;;11.63;6.47;;;;;;;29.61;59.44;100323.44;5106081;28;20031;-66
2022/08/25 08:37:30;;;;;;;11.05;5.55;;;;;;;29.68;59.58;100326.84;5104627;28;20019;-66
2022/08/25 08:39:55;;;;;;;13.23;5.47;;;;;;;29.74;59.22;100321.13;5106125;28;20706;-65
2022/08/25 08:42:32;;;;;;;13.95;6.85;;;;;;;29.80;59.29;100324.78;5106047;28;20083;-66
2022/08/25 08:45:28;;;;;;;11.80;6.18;;;;;;;29.88;58.77;100324.28;5104363;28;20148;-65
2022/08/25 08:48:26;;;;;;;12.80;5.95;;;;;;;29.92;59.13;100311.63;5103399;28;20138;-66
2022/08/25 08:51:04;;;;;;;14.38;5.50;;;;;;;30.00;58.02;100316.69;5103869;28;20030;-66
2022/08/25 08:53:53;;;;;;;12.45;5.40;;;;;;;30.00;57.17;100320.31;5106397;28;20027;-65
2022/08/25 08:56:24;;;;;;;11.40;4.80;;;;;;;30.03;56.64;100308.72;5104560;28;20039;-65
2022/08/25 08:59:01;;;;;;;11.10;5.03;;;;;;;30.01;57.07;100304.50;5105413;28;20106;-65
2022/08/25 09:01:41;;;;;;;13.10;5.30;;;;;;;30.04;56.42;100295.69;5105702;28;20027;-65
2022/08/25 09:04:26;;;;;;;12.27;5.75;;;;;;;30.19;56.41;100307.78;5105765;28;20053;-66
2022/08/25 09:06:52;;;;;;;9.45;5.10;;;;;;;30.24;55.70;100302.28;5105735;28;20031;-67
2022/08/25 09:09:27;;;;;;;12.65;5.50;;;;;;;30.19;55.76;100304.19;5104236;28;20027;-66
2022/08/25 09:11:53;;;;;;;8.70;4.28;;;;;;;30.24;55.98;100307.00;5105099;28;20440;-66
2022/08/25 09:14:18;;;;;;;16.25;5.13;;;;;;;30.26;56.28;100310.34;5105875;28;20037;-66
2022/08/25 09:16:58;;;;;;;14.70;5.28;;;;;;;30.28;55.43;100308.16;5105191;28;20106;-66
2022/08/25 09:19:58;;;;;;;10.57;4.90;;;;;;;30.25;55.39;100305.91;5104589;28;20397;-66
2022/08/25 09:23:08;;;;;;;10.70;5.60;;;;;;;30.30;55.72;100295.72;5105762;28;20019;-66
2022/08/25 09:25:58;;;;;;;11.52;5.43;;;;;;;30.33;55.44;100277.72;5106034;28;20406;-66
2022/08/25 09:28:48;;;;;;;12.43;5.20;;;;;;;30.35;55.30;100286.63;5104509;28;20089;-66
2022/08/25 09:31:32;;;;;;;10.32;5.47;;;;;;;30.35;55.33;100283.84;5105467;28;20042;-66
2022/08/25 09:34:00;;;;;;;13.20;5.17;;;;;;;30.28;55.39;100274.94;5105296;28;20437;-65
2022/08/25 09:36:26;;;;;;;12.13;5.38;;;;;;;30.30;55.16;100279.09;5105823;28;20024;-66
2022/08/25 09:38:51;;;;;;;14.27;5.40;;;;;;;30.30;55.32;100270.78;5105081;28;20032;-65
2022/08/25 09:41:48;;;;;;;7.00;4.95;;;;;;;30.35;55.42;100261.69;5102925;28;20059;-65
2022/08/25 09:44:30;;;;;;;12.80;5.72;;;;;;;30.39;55.17;100260.06;5090728;28;20122;-66
2022/08/25 09:47:16;;;;;;;10.80;5.53;;;;;;;30.41;55.30;100261.47;5104790;28;20505;-66
2022/08/25 09:49:43;;;;;;;9.85;5.70;;;;;;;30.44;55.79;100260.13;5103767;28;20031;-65
2022/08/25 09:52:30;;;;;;;12.35;5.25;;;;;;;30.49;55.32;100257.38;5104774;28;20038;-65
2022/08/25 09:55:00;;;;;;;15.18;5.80;;;;;;;30.53;55.01;100256.56;5103661;28;20032;-67
2022/08/25 09:57:50;;;;;;;10.98;5.50;;;;;;;30.61;54.27;100255.25;5103505;28;20059;-66
2022/08/25 10:00:17;;;;;;;11.68;5.20;;;;;;;30.61;54.08;100252.47;5105698;28;20027;-67
2022/08/25 10:02:59;;;;;;;9.25;5.00;;;;;;;30.62;54.36;100245.00;5103532;28;20134;-67
2022/08/25 10:05:25;;;;;;;7.75;4.43;;;;;;;30.67;54.42;100246.69;5105711;28;20366;-67
2022/08/25 10:07:58;;;;;;;10.38;5.18;;;;;;;30.81;53.77;100244.31;5106044;28;20023;-64
2022/08/25 10:10:32;;;;;;;15.27;5.28;;;;;;;30.85;53.68;100241.88;5109299;28;20036;-65
2022/08/25 10:13:00;;;;;;;8.65;5.25;;;;;;;30.87;53.59;100239.63;5108382;28;20034;-64
2022/08/25 10:15:34;;;;;;;10.95;4.90;;;;;;;30.85;52.24;100237.13;5107520;28;20051;-65
2022/08/25 10:18:25;;;;;;;12.82;4.53;;;;;;;30.96;51.80;100238.03;5108673;28;20363;-65
2022/08/25 10:21:01;;;;;;;15.70;5.22;;;;;;;30.98;51.87;100230.28;5108476;28;20038;-64
2022/08/25 10:23:27;;;;;;;16.27;4.93;;;;;;;30.96;52.20;100225.03;5108517;28;20035;-67
2022/08/25 10:25:53;;;;;;;11.32;5.85;;;;;;;31.01;51.70;100227.00;5105925;28;20038;-67
2022/08/25 10:28:29;;;;;;;11.15;4.57;;;;;;;31.04;51.62;100223.69;5108980;28;20027;-67
2022/08/25 10:31:27;;;;;;;14.30;5.22;;;;;;;31.08;50.75;100219.25;5105561;28;20708;-67
2022/08/25 10:34:25;;;;;;;16.30;5.00;;;;;;;31.18;50.12;100214.59;5104771;28;20528;-67
2022/08/25 10:37:18;;;;;;;14.05;4.93;;;;;;;31.15;49.97;100217.06;5065445;28;20031;-65
2022/08/25 10:40:10;;;;;;;13.18;4.85;;;;;;;31.13;50.52;100213.72;5106458;28;20506;-64
2022/08/25 10:42:48;;;;;;;10.23;5.18;;;;;;;31.13;50.83;100203.47;5108528;28;20066;-65
2022/08/25 10:45:44;;;;;;;14.55;5.20;;;;;;;31.17;50.90;100201.00;5106994;28;20379;-64
2022/08/25 10:48:16;;;;;;;11.88;5.32;;;;;;;31.16;50.79;100200.16;5108413;28;20024;-64
2022/08/25 10:50:49;;;;;;;10.23;4.95;;;;;;;31.15;50.67;100201.28;5107849;28;20137;-66
2022/08/25 10:53:36;;;;;;;9.88;4.45;;;;;;;31.21;49.41;100202.94;5108075;28;20031;-64
2022/08/25 10:56:13;;;;;;;14.70;4.88;;;;;;;31.22;49.18;100190.75;5106184;28;20948;-64
2022/08/25 10:58:51;;;;;;;9.73;4.90;;;;;;;31.29;49.15;100188.59;5106431;28;20035;-64
2022/08/25 11:01:44;;;;;;;8.25;4.63;;;;;;;31.29;49.32;100183.06;5105387;28;20043;-64
2022/08/25 11:04:42;;;;;;;12.20;5.18;;;;;;;31.32;49.81;100185.28;5108104;28;20054;-64
2022/08/25 11:07:19;;;;;;;15.43;5.28;;;;;;;31.41;49.50;100174.47;5106723;28;20032;-65
2022/08/25 11:09:48;;;;;;;10.77;5.00;;;;;;;31.39;49.86;100183.06;5107202;28;20024;-64
2022/08/25 11:12:25;;;;;;;10.80;4.95;;;;;;;31.26;49.27;100155.84;5107582;28;20032;-64
2022/08/25 11:15:02;;;;;;;17.08;5.60;;;;;;;31.37;49.68;100157.56;5106992;28;20502;-65
2022/08/25 11:17:39;;;;;;;14.00;5.03;;;;;;;31.44;50.11;100160.91;5104383;28;20047;-64
2022/08/25 11:20:16;;;;;;;11.77;5.40;;;;;;;31.57;49.77;100167.84;5104638;28;20028;-65
2022/08/25 11:22:52;;;;;;;19.63;4.80;;;;;;;31.60;48.88;100159.81;5107363;28;20101;-65
2022/08/25 11:25:41;;;;;;;13.75;5.07;;;;;;;31.59;48.19;100158.16;5107263;28;20054;-65